Statesville, North Carolina
Current Conditions -  °F | °C
As of 9:15 AM on Thursday 29 Jan 2015 (Local Time) from KSVH Reporting Station
Clear Clear  
Wind Chill: 34°   Ceiling: Unl
Heat Index: 34°   Visibility: 10mi
Dew Point: 24°   Wind: 3mph
Humidity: 65%   Direction: 190°S
Pressure: 30.29"   Gusts: NA
Location:  35.79°N, 80.89°W
Report Text: KSVH 291415Z AUTO 19003KT 10SM CLR 01/M05 A3029 RMK AO2 T00131046
Loading
Personal Weather Stations






























Interactive Weather Map New forecast layout! Learn more

10-Day Weather Forecast

Advertisements
Track Severe Weather on mobile